Terminal Aerodrome Forecast
Issued by NWS

Current Version | Previous Version | Graphics & Text | Print | Product List | Glossary On
Versions: 1 2 3 4 5 6 7 8 9 10 11 12 13 14 15 16 17 18
000
FTUS41 KPBZ 171736
TAFMGW
TAF
KMGW 171736Z 1718/1818 24007G15KT 5SM -SN BKN015
      TEMPO 1718/1721 1 1/2SM -SN BR BKN009 OVC030
     FM172100 27010G19KT P6SM BKN035
     FM180000 26006KT P6SM BKN040=

USA.gov is the U.S. government's official web portal to all federal, state and local government web resources and services.